Westrac — WTH4325 — position and weather

sailwx.info

Track history (hours):
 
Tides and Currents Weather Stations Pressure Air Temp Water Temp Dewpoint Dewpoint Depression Visibility Wind Speed Wind Dir Waves Ship Positions

Westrac

Owner: WESTERN TOWBOAT CO, SEATTLE, WA. More information available from US FCC via Universal Licensing System and Coast Guard Vessel Documentation Center.

Last reported at 2017-Apr-27 18:30 UTC. Time now 2017-Apr-27 18:53 UTC.
Position N 47°36' W 122°22'.

Length 23 m; draft 5 m.

Type: Tug. MMSI: 366993010.

Date/timePositionNaut miles runAvg speedWind from/ knotsBaromVisibWave heightAir tempDewpointWater temp
2017-Apr-27 18:30N 47°36' W 122°22'1 2.5
2017-Apr-27 18:00N 47°35' W 122°21'0 0.1
2017-Apr-27 17:30N 47°35' W 122°21'1 2.3
2017-Apr-27 17:00N 47°34' W 122°21'1 2.7
2017-Apr-27 16:30N 47°35' W 122°22'2 4.3
2017-Apr-27 16:00N 47°33' W 122°21'0 0.2
2017-Apr-27 15:30N 47°33' W 122°21'1 1.4
2017-Apr-27 15:00N 47°34' W 122°21'0 0.2
2017-Apr-27 14:00N 47°34' W 122°21'0 0.0
2017-Apr-27 02:51N 47°34' W 122°21'0 0.8
2017-Apr-27 02:31N 47°34' W 122°21'0 0.7
2017-Apr-27 02:01N 47°34' W 122°21'0 0.0
2017-Apr-27 01:31N 47°34' W 122°21'3 5.9
2017-Apr-27 01:01N 47°37' W 122°23'1 2.6
2017-Apr-27 00:31N 47°38' W 122°23'0 0.7
2017-Apr-27 00:01N 47°38' W 122°23'0 0.8
2017-Apr-26 23:30N 47°37' W 122°23'2 3.7
2017-Apr-26 23:01N 47°35' W 122°22'0 0.5
2017-Apr-26 22:31N 47°36' W 122°22'0 0.3
2017-Apr-26 22:01N 47°36' W 122°23'3 5.2
2017-Apr-26 21:31N 47°33' W 122°21'0 0.8
2017-Apr-26 21:01N 47°34' W 122°21'0 0.8
2017-Apr-26 20:31N 47°34' W 122°21'0 0.0
2017-Apr-26 20:01N 47°34' W 122°21'0 0.0
2017-Apr-26 19:30N 47°34' W 122°21'0 0.0
2017-Apr-26 19:01N 47°34' W 122°21'0 0.3
2017-Apr-26 18:31N 47°34' W 122°21'0 0.8
2017-Apr-26 18:00N 47°34' W 122°21'2 3.5
2017-Apr-26 17:30N 47°33' W 122°20'0 0.6
2017-Apr-26 17:01N 47°33' W 122°20'0 0.8
2017-Apr-26 16:31N 47°33' W 122°20'2 3.8
2017-Apr-26 16:01N 47°34' W 122°21'1 1.9
2017-Apr-26 15:30N 47°35' W 122°21'0 0.9
2017-Apr-26 15:01N 47°35' W 122°22'2 4.8
2017-Apr-26 14:31N 47°33' W 122°20'1 1.5
2017-Apr-26 13:31N 47°34' W 122°21'0 0.0
2017-Apr-26 13:01N 47°34' W 122°21'0 0.0
2017-Apr-25 22:33N 47°34' W 122°21'0 0.3
2017-Apr-25 22:30N 47°34' W 122°21'1 2.9
2017-Apr-25 22:00N 47°33' W 122°20'1 1.3
2017-Apr-25 21:30N 47°33' W 122°21'1 1.9
2017-Apr-25 21:00N 47°32' W 122°20'1 2.5
2017-Apr-25 20:30N 47°34' W 122°21'1 2.8
2017-Apr-25 20:00N 47°35' W 122°21'0 0.1
2017-Apr-25 19:30N 47°35' W 122°21'0 0.1
2017-Apr-25 19:00N 47°35' W 122°21'0 0.0
2017-Apr-25 18:30N 47°35' W 122°21'1 1.3
2017-Apr-25 18:00N 47°36' W 122°21'3 5.7
2017-Apr-25 17:30N 47°33' W 122°20'2 3.7
2017-Apr-25 17:00N 47°34' W 122°21'0 0.6
2017-Apr-25 16:30N 47°35' W 122°22'2 4.9
2017-Apr-25 16:00N 47°32' W 122°20'2 3.6
2017-Apr-25 15:30N 47°34' W 122°21'0 0.1
2017-Apr-25 15:00N 47°34' W 122°21'0 0.0
2017-Apr-25 02:13N 47°34' W 122°21'1 6.8
2017-Apr-25 02:00N 47°35' W 122°22'4 7.7
2017-Apr-25 01:30N 47°32' W 122°25'611.1
2017-Apr-25 01:00N 47°27' W 122°23'5 9.9
2017-Apr-25 00:30N 47°22' W 122°22'510.8
2017-Apr-25 00:00N 47°18' W 122°27'2 2.2
2017-Apr-24 23:00N 47°17' W 122°24'3 6.4
2017-Apr-24 22:30N 47°19' W 122°27'4 7.6
2017-Apr-24 22:00N 47°22' W 122°23'3 6.4
2017-Apr-24 21:30N 47°25' W 122°24'4 8.0
2017-Apr-24 21:00N 47°29' W 122°26'4 8.0
2017-Apr-24 20:30N 47°33' W 122°28'4 7.6
2017-Apr-24 20:00N 47°36' W 122°24'2 4.7
2017-Apr-24 19:30N 47°34' W 122°21'2 4.6
2017-Apr-24 19:00N 47°32' W 122°20'1 1.8
2017-Apr-24 18:30N 47°33' W 122°20'2 4.5
2017-Apr-24 18:00N 47°35' W 122°22'1 2.2
2017-Apr-24 17:30N 47°34' W 122°21'0 0.0
2017-Apr-24 17:00N 47°34' W 122°21'0 0.0
2017-Apr-24 16:30N 47°34' W 122°21'0 0.0
2017-Apr-24 16:00N 47°34' W 122°21'1 2.2
2017-Apr-24 15:30N 47°35' W 122°22'0 0.3
2017-Apr-24 15:00N 47°35' W 122°22'2 3.2
2017-Apr-24 14:30N 47°34' W 122°21'0 0.0
2017-Apr-23 17:26N 47°34' W 122°21'1 1.9
2017-Apr-23 17:00N 47°33' W 122°21'2 5.0
2017-Apr-23 16:30N 47°36' W 122°22'2 0.1
2017-Apr-22 20:45N 47°34' W 122°21'1 6.1
2017-Apr-22 20:31N 47°33' W 122°20'0 0.8
2017-Apr-22 20:01N 47°32' W 122°20'0 0.8
2017-Apr-22 19:30N 47°33' W 122°20'3 5.6
2017-Apr-22 19:00N 47°35' W 122°22'1 2.7
2017-Apr-22 18:30N 47°34' W 122°21'1 2.2
2017-Apr-22 18:00N 47°33' W 122°20'1 2.5
2017-Apr-22 17:30N 47°34' W 122°21'1 3.0
2017-Apr-22 17:00N 47°35' W 122°22'2 3.5
2017-Apr-22 16:30N 47°34' W 122°21'2 3.2
2017-Apr-22 16:00N 47°32' W 122°20'1 2.0
2017-Apr-22 15:31N 47°33' W 122°21'1 1.3
2017-Apr-22 15:01N 47°34' W 122°21'0 0.0
2017-Apr-22 02:24N 47°34' W 122°21'1 2.1
2017-Apr-22 02:00N 47°33' W 122°21'1 3.0
2017-Apr-22 01:30N 47°35' W 122°22'1 2.0
2017-Apr-22 01:00N 47°36' W 122°22'0 0.0
2017-Apr-22 00:30N 47°36' W 122°22'1 1.1
2017-Apr-22 00:00N 47°36' W 122°23'0 0.9
2017-Apr-21 23:30N 47°36' W 122°23'3 5.2
2017-Apr-21 23:00N 47°34' W 122°21'0 0.0
2017-Apr-21 19:43N 47°34' W 122°21'1 6.4
2017-Apr-21 19:31N 47°35' W 122°22'0 0.8
2017-Apr-21 19:00N 47°35' W 122°22'2 3.5
2017-Apr-21 18:31N 47°33' W 122°21'0 0.1
2017-Apr-21 18:00N 47°33' W 122°20'1 1.6
2017-Apr-21 17:31N 47°34' W 122°21'1 1.9
2017-Apr-21 17:01N 47°35' W 122°22'2 3.7
2017-Apr-21 16:31N 47°33' W 122°21'0 0.1
2017-Apr-21 16:01N 47°33' W 122°21'1 1.6
2017-Apr-21 15:30N 47°34' W 122°21'1 1.0
2017-Apr-21 15:01N 47°34' W 122°21'1 2.5
2017-Apr-21 14:31N 47°35' W 122°22'1 0.7
2017-Apr-21 13:30N 47°35' W 122°22'0 0.4
2017-Apr-21 13:00N 47°35' W 122°22'1 1.4
2017-Apr-21 12:31N 47°36' W 122°22'0 0.2
2017-Apr-21 12:01N 47°36' W 122°22'2 3.4
2017-Apr-21 11:31N 47°34' W 122°21'0 0.0
2017-Apr-20 19:59N 47°34' W 122°21'1 2.7
2017-Apr-20 19:30N 47°33' W 122°20'2 5.0
2017-Apr-20 19:00N 47°35' W 122°22'0 0.6
2017-Apr-20 18:30N 47°35' W 122°21'2 3.5
2017-Apr-20 18:00N 47°34' W 122°21'1 2.3
2017-Apr-20 17:30N 47°33' W 122°20'0 0.7
2017-Apr-20 17:00N 47°32' W 122°20'2 4.1
2017-Apr-20 16:30N 47°34' W 122°21'1 2.6
2017-Apr-20 16:00N 47°35' W 122°22'3 5.6
2017-Apr-20 15:30N 47°33' W 122°20'0 0.1
2017-Apr-20 14:59N 47°33' W 122°20'0 0.3
2017-Apr-20 14:30N 47°33' W 122°20'1 1.4
2017-Apr-20 13:30N 47°34' W 122°21'0 0.0
2017-Apr-20 01:33N 47°34' W 122°21'0 0.0
2017-Apr-20 01:30N 47°34' W 122°21'1 1.6
2017-Apr-20 01:00N 47°33' W 122°21'1 2.1
2017-Apr-20 00:30N 47°34' W 122°21'1 2.2
2017-Apr-20 00:00N 47°35' W 122°21'0 0.2
2017-Apr-19 23:30N 47°35' W 122°21'0 0.1
2017-Apr-19 23:00N 47°35' W 122°21'0 0.8
2017-Apr-19 22:30N 47°35' W 122°22'2 4.0
2017-Apr-19 22:00N 47°33' W 122°21'0 0.0
2017-Apr-19 21:30N 47°33' W 122°21'0 0.0
2017-Apr-19 21:00N 47°33' W 122°21'0 0.0
2017-Apr-19 20:30N 47°33' W 122°21'1 1.2
2017-Apr-19 20:00N 47°34' W 122°21'1 2.4
2017-Apr-19 19:30N 47°33' W 122°20'0 0.0
2017-Apr-19 19:00N 47°33' W 122°20'0 0.1
2017-Apr-19 18:30N 47°33' W 122°20'1 1.1
2017-Apr-19 18:00N 47°33' W 122°21'3 5.8
2017-Apr-19 17:30N 47°36' W 122°23'3 5.9
2017-Apr-19 17:00N 47°33' W 122°21'1 1.1
2017-Apr-19 16:30N 47°33' W 122°20'1 2.8
2017-Apr-19 16:00N 47°34' W 122°21'1 2.5
2017-Apr-19 15:30N 47°35' W 122°21'0 0.7
2017-Apr-19 15:00N 47°35' W 122°21'1 2.3
2017-Apr-19 14:30N 47°34' W 122°21'0 0.2
2017-Apr-19 13:30N 47°34' W 122°21'0 0.4
2017-Apr-19 13:00N 47°34' W 122°21'0 0.0
2017-Apr-18 23:32N 47°34' W 122°21'0 0.0
2017-Apr-18 23:30N 47°34' W 122°21'4 8.7
2017-Apr-18 23:00N 47°38' W 122°25'2 4.7
2017-Apr-18 22:30N 47°40' W 122°24'1 1.9
2017-Apr-18 22:00N 47°40' W 122°23'1 0.1
2017-Apr-18 16:54N 47°39' W 122°22'1 3.8
2017-Apr-18 16:31N 47°40' W 122°24'2 3.2
2017-Apr-18 16:01N 47°40' W 122°26'4 7.2
2017-Apr-18 15:30N 47°37' W 122°24'3 5.8
2017-Apr-18 15:00N 47°35' W 122°21'0 0.7
2017-Apr-18 14:31N 47°35' W 122°21'1 1.2
2017-Apr-18 13:31N 47°34' W 122°21'0 0.0
2017-Apr-18 13:00N 47°34' W 122°21'0 0.0
2017-Apr-18 12:30N 47°34' W 122°21'0 0.0
2017-Apr-18 12:01N 47°34' W 122°21'0 0.0
2017-Apr-18 11:31N 47°34' W 122°21'0 0.0
2017-Apr-18 11:01N 47°34' W 122°21'0 0.0
2017-Apr-18 10:31N 47°34' W 122°21'0 0.0
2017-Apr-18 10:01N 47°34' W 122°21'0 0.0
2017-Apr-18 09:31N 47°34' W 122°21'0 0.0
2017-Apr-18 09:01N 47°34' W 122°21'0 0.0
2017-Apr-18 08:31N 47°34' W 122°21'0 0.0
2017-Apr-18 08:01N 47°34' W 122°21'0 0.0
2017-Apr-18 07:31N 47°34' W 122°21'0 0.0
2017-Apr-18 07:01N 47°34' W 122°21'0 0.0
2017-Apr-18 06:30N 47°34' W 122°21'0 0.0
2017-Apr-18 06:00N 47°34' W 122°21'0 0.0
2017-Apr-18 05:30N 47°34' W 122°21'0 0.0
2017-Apr-18 05:00N 47°34' W 122°21'0 0.0
2017-Apr-18 04:31N 47°34' W 122°21'0 0.0
2017-Apr-18 04:01N 47°34' W 122°21'0 0.0
2017-Apr-18 03:31N 47°34' W 122°21'0 0.0
2017-Apr-18 03:00N 47°34' W 122°21'0 0.0
2017-Apr-18 02:31N 47°34' W 122°21'0 0.0
2017-Apr-18 02:01N 47°34' W 122°21'0 0.0
2017-Apr-18 01:31N 47°34' W 122°21'0 0.0
2017-Apr-18 01:01N 47°34' W 122°21'0 0.5
2017-Apr-18 00:31N 47°34' W 122°21'0 0.5
2017-Apr-18 00:01N 47°34' W 122°21'1 2.3
2017-Apr-17 23:30N 47°35' W 122°21'1 1.7
2017-Apr-17 23:00N 47°34' W 122°21'2 3.9
2017-Apr-17 22:30N 47°33' W 122°20'3 5.5
2017-Apr-17 22:01N 47°35' W 122°22'1 1.2
2017-Apr-17 21:31N 47°36' W 122°22'1 2.7
2017-Apr-17 21:00N 47°34' W 122°21'1 2.9
2017-Apr-17 20:31N 47°33' W 122°21'1 1.9
2017-Apr-17 20:01N 47°34' W 122°21'0 0.0
2017-Apr-17 19:31N 47°34' W 122°21'0 0.0
2017-Apr-17 19:01N 47°34' W 122°21'0 0.0
2017-Apr-17 18:31N 47°34' W 122°21'  
Track history (hours):
 
Tides and Currents Weather Stations Pressure Air Temp Water Temp Dewpoint Dewpoint Depression Visibility Wind Speed Wind Dir Waves Ship Positions

Westrac

Owner: WESTERN TOWBOAT CO, SEATTLE, WA. More information available from US FCC via Universal Licensing System and Coast Guard Vessel Documentation Center.

Last reported at 2017-Apr-27 18:30 UTC. Time now 2017-Apr-27 18:53 UTC.
Position N 47°36' W 122°22'.

Length 23 m; draft 5 m.

Type: Tug. MMSI: 366993010.

Date/timePositionNaut miles runAvg speedWind from/ knotsBaromVisibWave heightAir tempDewpointWater temp
2017-Apr-27 18:30N 47°36' W 122°22'1 2.5
2017-Apr-27 18:00N 47°35' W 122°21'0 0.1
2017-Apr-27 17:30N 47°35' W 122°21'1 2.3
2017-Apr-27 17:00N 47°34' W 122°21'1 2.7
2017-Apr-27 16:30N 47°35' W 122°22'2 4.3
2017-Apr-27 16:00N 47°33' W 122°21'0 0.2
2017-Apr-27 15:30N 47°33' W 122°21'1 1.4
2017-Apr-27 15:00N 47°34' W 122°21'0 0.2
2017-Apr-27 14:00N 47°34' W 122°21'0 0.0
2017-Apr-27 02:51N 47°34' W 122°21'0 0.8
2017-Apr-27 02:31N 47°34' W 122°21'0 0.7
2017-Apr-27 02:01N 47°34' W 122°21'0 0.0
2017-Apr-27 01:31N 47°34' W 122°21'3 5.9
2017-Apr-27 01:01N 47°37' W 122°23'1 2.6
2017-Apr-27 00:31N 47°38' W 122°23'0 0.7
2017-Apr-27 00:01N 47°38' W 122°23'0 0.8
2017-Apr-26 23:30N 47°37' W 122°23'2 3.7
2017-Apr-26 23:01N 47°35' W 122°22'0 0.5
2017-Apr-26 22:31N 47°36' W 122°22'0 0.3
2017-Apr-26 22:01N 47°36' W 122°23'3 5.2
2017-Apr-26 21:31N 47°33' W 122°21'0 0.8
2017-Apr-26 21:01N 47°34' W 122°21'0 0.8
2017-Apr-26 20:31N 47°34' W 122°21'0 0.0
2017-Apr-26 20:01N 47°34' W 122°21'0 0.0
2017-Apr-26 19:30N 47°34' W 122°21'0 0.0
2017-Apr-26 19:01N 47°34' W 122°21'0 0.3
2017-Apr-26 18:31N 47°34' W 122°21'0 0.8
2017-Apr-26 18:00N 47°34' W 122°21'2 3.5
2017-Apr-26 17:30N 47°33' W 122°20'0 0.6
2017-Apr-26 17:01N 47°33' W 122°20'0 0.8
2017-Apr-26 16:31N 47°33' W 122°20'2 3.8
2017-Apr-26 16:01N 47°34' W 122°21'1 1.9
2017-Apr-26 15:30N 47°35' W 122°21'0 0.9
2017-Apr-26 15:01N 47°35' W 122°22'2 4.8
2017-Apr-26 14:31N 47°33' W 122°20'1 1.5
2017-Apr-26 13:31N 47°34' W 122°21'0 0.0
2017-Apr-26 13:01N 47°34' W 122°21'0 0.0
2017-Apr-25 22:33N 47°34' W 122°21'0 0.3
2017-Apr-25 22:30N 47°34' W 122°21'1 2.9
2017-Apr-25 22:00N 47°33' W 122°20'1 1.3
2017-Apr-25 21:30N 47°33' W 122°21'1 1.9
2017-Apr-25 21:00N 47°32' W 122°20'1 2.5
2017-Apr-25 20:30N 47°34' W 122°21'1 2.8
2017-Apr-25 20:00N 47°35' W 122°21'0 0.1
2017-Apr-25 19:30N 47°35' W 122°21'0 0.1
2017-Apr-25 19:00N 47°35' W 122°21'0 0.0
2017-Apr-25 18:30N 47°35' W 122°21'1 1.3
2017-Apr-25 18:00N 47°36' W 122°21'3 5.7
2017-Apr-25 17:30N 47°33' W 122°20'2 3.7
2017-Apr-25 17:00N 47°34' W 122°21'0 0.6
2017-Apr-25 16:30N 47°35' W 122°22'2 4.9
2017-Apr-25 16:00N 47°32' W 122°20'2 3.6
2017-Apr-25 15:30N 47°34' W 122°21'0 0.1
2017-Apr-25 15:00N 47°34' W 122°21'0 0.0
2017-Apr-25 02:13N 47°34' W 122°21'1 6.8
2017-Apr-25 02:00N 47°35' W 122°22'4 7.7
2017-Apr-25 01:30N 47°32' W 122°25'611.1
2017-Apr-25 01:00N 47°27' W 122°23'5 9.9
2017-Apr-25 00:30N 47°22' W 122°22'510.8
2017-Apr-25 00:00N 47°18' W 122°27'2 2.2
2017-Apr-24 23:00N 47°17' W 122°24'3 6.4
2017-Apr-24 22:30N 47°19' W 122°27'4 7.6
2017-Apr-24 22:00N 47°22' W 122°23'3 6.4
2017-Apr-24 21:30N 47°25' W 122°24'4 8.0
2017-Apr-24 21:00N 47°29' W 122°26'4 8.0
2017-Apr-24 20:30N 47°33' W 122°28'4 7.6
2017-Apr-24 20:00N 47°36' W 122°24'2 4.7
2017-Apr-24 19:30N 47°34' W 122°21'2 4.6
2017-Apr-24 19:00N 47°32' W 122°20'1 1.8
2017-Apr-24 18:30N 47°33' W 122°20'2 4.5
2017-Apr-24 18:00N 47°35' W 122°22'1 2.2
2017-Apr-24 17:30N 47°34' W 122°21'0 0.0
2017-Apr-24 17:00N 47°34' W 122°21'0 0.0
2017-Apr-24 16:30N 47°34' W 122°21'0 0.0
2017-Apr-24 16:00N 47°34' W 122°21'1 2.2
2017-Apr-24 15:30N 47°35' W 122°22'0 0.3
2017-Apr-24 15:00N 47°35' W 122°22'2 3.2
2017-Apr-24 14:30N 47°34' W 122°21'0 0.0
2017-Apr-23 17:26N 47°34' W 122°21'1 1.9
2017-Apr-23 17:00N 47°33' W 122°21'2 5.0
2017-Apr-23 16:30N 47°36' W 122°22'2 0.1
2017-Apr-22 20:45N 47°34' W 122°21'1 6.1
2017-Apr-22 20:31N 47°33' W 122°20'0 0.8
2017-Apr-22 20:01N 47°32' W 122°20'0 0.8
2017-Apr-22 19:30N 47°33' W 122°20'3 5.6
2017-Apr-22 19:00N 47°35' W 122°22'1 2.7
2017-Apr-22 18:30N 47°34' W 122°21'1 2.2
2017-Apr-22 18:00N 47°33' W 122°20'1 2.5
2017-Apr-22 17:30N 47°34' W 122°21'1 3.0
2017-Apr-22 17:00N 47°35' W 122°22'2 3.5
2017-Apr-22 16:30N 47°34' W 122°21'2 3.2
2017-Apr-22 16:00N 47°32' W 122°20'1 2.0
2017-Apr-22 15:31N 47°33' W 122°21'1 1.3
2017-Apr-22 15:01N 47°34' W 122°21'0 0.0
2017-Apr-22 02:24N 47°34' W 122°21'1 2.1
2017-Apr-22 02:00N 47°33' W 122°21'1 3.0
2017-Apr-22 01:30N 47°35' W 122°22'1 2.0
2017-Apr-22 01:00N 47°36' W 122°22'0 0.0
2017-Apr-22 00:30N 47°36' W 122°22'1 1.1
2017-Apr-22 00:00N 47°36' W 122°23'0 0.9
2017-Apr-21 23:30N 47°36' W 122°23'3 5.2
2017-Apr-21 23:00N 47°34' W 122°21'0 0.0
2017-Apr-21 19:43N 47°34' W 122°21'1 6.4
2017-Apr-21 19:31N 47°35' W 122°22'0 0.8
2017-Apr-21 19:00N 47°35' W 122°22'2 3.5
2017-Apr-21 18:31N 47°33' W 122°21'0 0.1
2017-Apr-21 18:00N 47°33' W 122°20'1 1.6
2017-Apr-21 17:31N 47°34' W 122°21'1 1.9
2017-Apr-21 17:01N 47°35' W 122°22'2 3.7
2017-Apr-21 16:31N 47°33' W 122°21'0 0.1
2017-Apr-21 16:01N 47°33' W 122°21'1 1.6
2017-Apr-21 15:30N 47°34' W 122°21'1 1.0
2017-Apr-21 15:01N 47°34' W 122°21'1 2.5
2017-Apr-21 14:31N 47°35' W 122°22'1 0.7
2017-Apr-21 13:30N 47°35' W 122°22'0 0.4
2017-Apr-21 13:00N 47°35' W 122°22'1 1.4
2017-Apr-21 12:31N 47°36' W 122°22'0 0.2
2017-Apr-21 12:01N 47°36' W 122°22'2 3.4
2017-Apr-21 11:31N 47°34' W 122°21'0 0.0
2017-Apr-20 19:59N 47°34' W 122°21'1 2.7
2017-Apr-20 19:30N 47°33' W 122°20'2 5.0
2017-Apr-20 19:00N 47°35' W 122°22'0 0.6
2017-Apr-20 18:30N 47°35' W 122°21'2 3.5
2017-Apr-20 18:00N 47°34' W 122°21'1 2.3
2017-Apr-20 17:30N 47°33' W 122°20'0 0.7
2017-Apr-20 17:00N 47°32' W 122°20'2 4.1
2017-Apr-20 16:30N 47°34' W 122°21'1 2.6
2017-Apr-20 16:00N 47°35' W 122°22'3 5.6
2017-Apr-20 15:30N 47°33' W 122°20'0 0.1
2017-Apr-20 14:59N 47°33' W 122°20'0 0.3
2017-Apr-20 14:30N 47°33' W 122°20'1 1.4
2017-Apr-20 13:30N 47°34' W 122°21'0 0.0
2017-Apr-20 01:33N 47°34' W 122°21'0 0.0
2017-Apr-20 01:30N 47°34' W 122°21'1 1.6
2017-Apr-20 01:00N 47°33' W 122°21'1 2.1
2017-Apr-20 00:30N 47°34' W 122°21'1 2.2
2017-Apr-20 00:00N 47°35' W 122°21'0 0.2
2017-Apr-19 23:30N 47°35' W 122°21'0 0.1
2017-Apr-19 23:00N 47°35' W 122°21'0 0.8
2017-Apr-19 22:30N 47°35' W 122°22'2 4.0
2017-Apr-19 22:00N 47°33' W 122°21'0 0.0
2017-Apr-19 21:30N 47°33' W 122°21'0 0.0
2017-Apr-19 21:00N 47°33' W 122°21'0 0.0
2017-Apr-19 20:30N 47°33' W 122°21'1 1.2
2017-Apr-19 20:00N 47°34' W 122°21'1 2.4
2017-Apr-19 19:30N 47°33' W 122°20'0 0.0
2017-Apr-19 19:00N 47°33' W 122°20'0 0.1
2017-Apr-19 18:30N 47°33' W 122°20'1 1.1
2017-Apr-19 18:00N 47°33' W 122°21'3 5.8
2017-Apr-19 17:30N 47°36' W 122°23'3 5.9
2017-Apr-19 17:00N 47°33' W 122°21'1 1.1
2017-Apr-19 16:30N 47°33' W 122°20'1 2.8
2017-Apr-19 16:00N 47°34' W 122°21'1 2.5
2017-Apr-19 15:30N 47°35' W 122°21'0 0.7
2017-Apr-19 15:00N 47°35' W 122°21'1 2.3
2017-Apr-19 14:30N 47°34' W 122°21'0 0.2
2017-Apr-19 13:30N 47°34' W 122°21'0 0.4
2017-Apr-19 13:00N 47°34' W 122°21'0 0.0
2017-Apr-18 23:32N 47°34' W 122°21'0 0.0
2017-Apr-18 23:30N 47°34' W 122°21'4 8.7
2017-Apr-18 23:00N 47°38' W 122°25'2 4.7
2017-Apr-18 22:30N 47°40' W 122°24'1 1.9
2017-Apr-18 22:00N 47°40' W 122°23'1 0.1
2017-Apr-18 16:54N 47°39' W 122°22'1 3.8
2017-Apr-18 16:31N 47°40' W 122°24'2 3.2
2017-Apr-18 16:01N 47°40' W 122°26'4 7.2
2017-Apr-18 15:30N 47°37' W 122°24'3 5.8
2017-Apr-18 15:00N 47°35' W 122°21'0 0.7
2017-Apr-18 14:31N 47°35' W 122°21'1 1.2
2017-Apr-18 13:31N 47°34' W 122°21'0 0.0
2017-Apr-18 13:00N 47°34' W 122°21'0 0.0
2017-Apr-18 12:30N 47°34' W 122°21'0 0.0
2017-Apr-18 12:01N 47°34' W 122°21'0 0.0
2017-Apr-18 11:31N 47°34' W 122°21'0 0.0
2017-Apr-18 11:01N 47°34' W 122°21'0 0.0
2017-Apr-18 10:31N 47°34' W 122°21'0 0.0
2017-Apr-18 10:01N 47°34' W 122°21'0 0.0
2017-Apr-18 09:31N 47°34' W 122°21'0 0.0
2017-Apr-18 09:01N 47°34' W 122°21'0 0.0
2017-Apr-18 08:31N 47°34' W 122°21'0 0.0
2017-Apr-18 08:01N 47°34' W 122°21'0 0.0
2017-Apr-18 07:31N 47°34' W 122°21'0 0.0
2017-Apr-18 07:01N 47°34' W 122°21'0 0.0
2017-Apr-18 06:30N 47°34' W 122°21'0 0.0
2017-Apr-18 06:00N 47°34' W 122°21'0 0.0
2017-Apr-18 05:30N 47°34' W 122°21'0 0.0
2017-Apr-18 05:00N 47°34' W 122°21'0 0.0
2017-Apr-18 04:31N 47°34' W 122°21'0 0.0
2017-Apr-18 04:01N 47°34' W 122°21'0 0.0
2017-Apr-18 03:31N 47°34' W 122°21'0 0.0
2017-Apr-18 03:00N 47°34' W 122°21'0 0.0
2017-Apr-18 02:31N 47°34' W 122°21'0 0.0
2017-Apr-18 02:01N 47°34' W 122°21'0 0.0
2017-Apr-18 01:31N 47°34' W 122°21'0 0.0
2017-Apr-18 01:01N 47°34' W 122°21'0 0.5
2017-Apr-18 00:31N 47°34' W 122°21'0 0.5
2017-Apr-18 00:01N 47°34' W 122°21'1 2.3
2017-Apr-17 23:30N 47°35' W 122°21'1 1.7
2017-Apr-17 23:00N 47°34' W 122°21'2 3.9
2017-Apr-17 22:30N 47°33' W 122°20'3 5.5
2017-Apr-17 22:01N 47°35' W 122°22'1 1.2
2017-Apr-17 21:31N 47°36' W 122°22'1 2.7
2017-Apr-17 21:00N 47°34' W 122°21'1 2.9
2017-Apr-17 20:31N 47°33' W 122°21'1 1.9
2017-Apr-17 20:01N 47°34' W 122°21'0 0.0
2017-Apr-17 19:31N 47°34' W 122°21'0 0.0
2017-Apr-17 19:01N 47°34' W 122°21'0 0.0
2017-Apr-17 18:31N 47°34' W 122°21'  

Dump ship's entire track history